sensor_id;sensor_type;location;lat;lon;timestamp;P1;durP1;ratioP1;P2;durP2;ratioP2
38318;SDS011;24121;53.536;10.224;2024-03-17T00:01:04;16.38;;;3.50;;
38318;SDS011;24121;53.536;10.224;2024-03-17T00:03:32;15.15;;;3.17;;
38318;SDS011;24121;53.536;10.224;2024-03-17T00:05:58;17.63;;;3.70;;
38318;SDS011;24121;53.536;10.224;2024-03-17T00:08:24;16.23;;;3.13;;
38318;SDS011;24121;53.536;10.224;2024-03-17T00:10:53;21.63;;;3.85;;
38318;SDS011;24121;53.536;10.224;2024-03-17T00:13:19;17.02;;;2.88;;
38318;SDS011;24121;53.536;10.224;2024-03-17T00:15:45;17.55;;;3.17;;
38318;SDS011;24121;53.536;10.224;2024-03-17T00:18:10;15.98;;;2.95;;
38318;SDS011;24121;53.536;10.224;2024-03-17T09:33:55;10.63;;;2.10;;
38318;SDS011;24121;53.536;10.224;2024-03-17T09:36:20;10.13;;;1.85;;
38318;SDS011;24121;53.536;10.224;2024-03-17T09:38:46;9.68;;;2.10;;
38318;SDS011;24121;53.536;10.224;2024-03-17T09:41:24;12.68;;;2.35;;
38318;SDS011;24121;53.536;10.224;2024-03-17T09:43:54;11.25;;;2.13;;
38318;SDS011;24121;53.536;10.224;2024-03-17T09:46:20;15.63;;;2.65;;
38318;SDS011;24121;53.536;10.224;2024-03-17T09:48:47;10.90;;;2.13;;
38318;SDS011;24121;53.536;10.224;2024-03-17T09:51:20;8.43;;;2.20;;
38318;SDS011;24121;53.536;10.224;2024-03-17T09:53:46;9.65;;;1.90;;
38318;SDS011;24121;53.536;10.224;2024-03-17T09:56:12;13.88;;;3.08;;
38318;SDS011;24121;53.536;10.224;2024-03-17T09:58:41;13.70;;;2.25;;
38318;SDS011;24121;53.536;10.224;2024-03-17T10:01:06;12.02;;;2.10;;
38318;SDS011;24121;53.536;10.224;2024-03-17T10:06:10;9.20;;;2.00;;
38318;SDS011;24121;53.536;10.224;2024-03-17T10:08:42;14.95;;;2.38;;
38318;SDS011;24121;53.536;10.224;2024-03-17T10:11:12;10.63;;;2.00;;
38318;SDS011;24121;53.536;10.224;2024-03-17T10:13:38;8.07;;;1.88;;
38318;SDS011;24121;53.536;10.224;2024-03-17T10:16:04;9.43;;;2.25;;
38318;SDS011;24121;53.536;10.224;2024-03-17T10:18:29;12.05;;;2.50;;
38318;SDS011;24121;53.536;10.224;2024-03-17T10:20:54;7.93;;;2.22;;
38318;SDS011;24121;53.536;10.224;2024-03-17T10:23:21;13.85;;;2.90;;
38318;SDS011;24121;53.536;10.224;2024-03-17T10:25:47;10.40;;;2.78;;
38318;SDS011;24121;53.536;10.224;2024-03-17T10:28:13;10.80;;;2.35;;
38318;SDS011;24121;53.536;10.224;2024-03-17T10:30:40;9.77;;;2.53;;
38318;SDS011;24121;53.536;10.224;2024-03-17T10:33:06;10.88;;;2.72;;
38318;SDS011;24121;53.536;10.224;2024-03-17T10:35:35;8.88;;;1.88;;
38318;SDS011;24121;53.536;10.224;2024-03-17T10:38:04;9.52;;;2.33;;
38318;SDS011;24121;53.536;10.224;2024-03-17T10:40:31;8.98;;;2.17;;
38318;SDS011;24121;53.536;10.224;2024-03-17T10:42:59;8.13;;;1.80;;
38318;SDS011;24121;53.536;10.224;2024-03-17T10:45:25;7.78;;;1.70;;
38318;SDS011;24121;53.536;10.224;2024-03-17T10:47:51;8.57;;;2.42;;
38318;SDS011;24121;53.536;10.224;2024-03-17T10:50:20;8.73;;;2.15;;
38318;SDS011;24121;53.536;10.224;2024-03-17T10:52:48;14.10;;;2.45;;
38318;SDS011;24121;53.536;10.224;2024-03-17T10:55:21;9.00;;;2.20;;
38318;SDS011;24121;53.536;10.224;2024-03-17T10:57:53;7.75;;;1.92;;
38318;SDS011;24121;53.536;10.224;2024-03-17T11:00:23;6.13;;;1.73;;
38318;SDS011;24121;53.536;10.224;2024-03-17T11:02:49;8.70;;;1.73;;
38318;SDS011;24121;53.536;10.224;2024-03-17T11:07:50;9.40;;;2.17;;
38318;SDS011;24121;53.536;10.224;2024-03-17T11:12:50;8.23;;;2.00;;
38318;SDS011;24121;53.536;10.224;2024-03-17T11:17:51;12.77;;;2.80;;
38318;SDS011;24121;53.536;10.224;2024-03-17T11:20:19;4.32;;;1.60;;
38318;SDS011;24121;53.536;10.224;2024-03-17T11:22:50;9.57;;;2.30;;
38318;SDS011;24121;53.536;10.224;2024-03-17T11:27:55;12.70;;;1.67;;
38318;SDS011;24121;53.536;10.224;2024-03-17T11:38:53;7.22;;;1.70;;
38318;SDS011;24121;53.536;10.224;2024-03-17T11:44:15;5.70;;;1.40;;
38318;SDS011;24121;53.536;10.224;2024-03-17T11:47:00;6.47;;;1.80;;
38318;SDS011;24121;53.536;10.224;2024-03-17T11:51:56;9.32;;;2.17;;
38318;SDS011;24121;53.536;10.224;2024-03-17T11:54:23;8.68;;;1.83;;
38318;SDS011;24121;53.536;10.224;2024-03-17T11:56:52;6.40;;;1.38;;
38318;SDS011;24121;53.536;10.224;2024-03-17T11:59:19;6.72;;;1.52;;
38318;SDS011;24121;53.536;10.224;2024-03-17T12:01:50;7.60;;;1.60;;
38318;SDS011;24121;53.536;10.224;2024-03-17T12:04:17;19.88;;;1.88;;
38318;SDS011;24121;53.536;10.224;2024-03-17T12:07:08;5.13;;;1.60;;
38318;SDS011;24121;53.536;10.224;2024-03-17T12:09:32;8.10;;;1.95;;
38318;SDS011;24121;53.536;10.224;2024-03-17T12:16:54;12.37;;;2.50;;
38318;SDS011;24121;53.536;10.224;2024-03-17T12:19:21;8.30;;;1.85;;
38318;SDS011;24121;53.536;10.224;2024-03-17T12:21:47;6.32;;;1.42;;
38318;SDS011;24121;53.536;10.224;2024-03-17T12:24:18;7.05;;;1.80;;
38318;SDS011;24121;53.536;10.224;2024-03-17T12:26:45;4.95;;;1.73;;
38318;SDS011;24121;53.536;10.224;2024-03-17T12:31:55;6.22;;;1.92;;
38318;SDS011;24121;53.536;10.224;2024-03-17T12:34:25;6.23;;;1.60;;
38318;SDS011;24121;53.536;10.224;2024-03-17T12:36:51;7.07;;;1.83;;
38318;SDS011;24121;53.536;10.224;2024-03-17T12:39:23;8.05;;;1.63;;
38318;SDS011;24121;53.536;10.224;2024-03-17T12:42:11;6.65;;;1.98;;
38318;SDS011;24121;53.536;10.224;2024-03-17T12:44:47;9.63;;;1.88;;
38318;SDS011;24121;53.536;10.224;2024-03-17T12:47:16;14.55;;;4.55;;
38318;SDS011;24121;53.536;10.224;2024-03-17T12:49:46;10.90;;;4.22;;
38318;SDS011;24121;53.536;10.224;2024-03-17T12:52:20;9.15;;;2.25;;
38318;SDS011;24121;53.536;10.224;2024-03-17T12:57:45;6.20;;;2.05;;
38318;SDS011;24121;53.536;10.224;2024-03-17T13:00:29;6.90;;;2.10;;
38318;SDS011;24121;53.536;10.224;2024-03-17T13:02:58;6.00;;;1.75;;
38318;SDS011;24121;53.536;10.224;2024-03-17T13:05:24;5.40;;;1.30;;
38318;SDS011;24121;53.536;10.224;2024-03-17T13:07:50;7.65;;;1.60;;
38318;SDS011;24121;53.536;10.224;2024-03-17T13:10:16;4.82;;;1.48;;
38318;SDS011;24121;53.536;10.224;2024-03-17T13:12:42;7.55;;;1.75;;
38318;SDS011;24121;53.536;10.224;2024-03-17T13:15:08;5.07;;;1.40;;
38318;SDS011;24121;53.536;10.224;2024-03-17T13:17:36;4.93;;;1.20;;
38318;SDS011;24121;53.536;10.224;2024-03-17T13:20:02;6.50;;;1.17;;
38318;SDS011;24121;53.536;10.224;2024-03-17T13:22:29;6.47;;;1.40;;
38318;SDS011;24121;53.536;10.224;2024-03-17T13:24:54;6.45;;;1.40;;
38318;SDS011;24121;53.536;10.224;2024-03-17T13:27:19;8.07;;;2.85;;
38318;SDS011;24121;53.536;10.224;2024-03-17T13:29:48;3.83;;;1.55;;
38318;SDS011;24121;53.536;10.224;2024-03-17T13:32:13;7.18;;;1.73;;
38318;SDS011;24121;53.536;10.224;2024-03-17T13:34:40;6.35;;;1.83;;
38318;SDS011;24121;53.536;10.224;2024-03-17T13:37:06;4.03;;;1.27;;
38318;SDS011;24121;53.536;10.224;2024-03-17T13:39:32;6.60;;;1.45;;
38318;SDS011;24121;53.536;10.224;2024-03-17T13:41:59;5.82;;;1.55;;
38318;SDS011;24121;53.536;10.224;2024-03-17T13:44:31;7.28;;;1.73;;
38318;SDS011;24121;53.536;10.224;2024-03-17T13:46:57;5.82;;;1.70;;
38318;SDS011;24121;53.536;10.224;2024-03-17T13:49:33;7.43;;;1.48;;
38318;SDS011;24121;53.536;10.224;2024-03-17T13:51:58;5.95;;;1.65;;
38318;SDS011;24121;53.536;10.224;2024-03-17T13:54:24;8.57;;;1.77;;
38318;SDS011;24121;53.536;10.224;2024-03-17T13:56:49;8.18;;;1.58;;
38318;SDS011;24121;53.536;10.224;2024-03-17T13:59:15;8.02;;;2.20;;
38318;SDS011;24121;53.536;10.224;2024-03-17T14:01:44;7.65;;;1.75;;
38318;SDS011;24121;53.536;10.224;2024-03-17T14:04:13;7.07;;;2.15;;
38318;SDS011;24121;53.536;10.224;2024-03-17T14:06:38;7.15;;;1.73;;
38318;SDS011;24121;53.536;10.224;2024-03-17T14:09:04;10.00;;;2.30;;
38318;SDS011;24121;53.536;10.224;2024-03-17T14:11:30;7.78;;;1.80;;
38318;SDS011;24121;53.536;10.224;2024-03-17T14:13:57;5.10;;;1.58;;
38318;SDS011;24121;53.536;10.224;2024-03-17T14:16:23;8.90;;;1.70;;
38318;SDS011;24121;53.536;10.224;2024-03-17T14:18:48;8.20;;;1.80;;
38318;SDS011;24121;53.536;10.224;2024-03-17T14:21:13;8.95;;;2.17;;
38318;SDS011;24121;53.536;10.224;2024-03-17T14:23:39;6.38;;;1.67;;
38318;SDS011;24121;53.536;10.224;2024-03-17T14:26:04;7.85;;;2.20;;
38318;SDS011;24121;53.536;10.224;2024-03-17T14:28:30;5.32;;;1.45;;
38318;SDS011;24121;53.536;10.224;2024-03-17T14:30:55;7.95;;;1.75;;
38318;SDS011;24121;53.536;10.224;2024-03-17T14:33:20;7.60;;;1.73;;
38318;SDS011;24121;53.536;10.224;2024-03-17T14:35:46;7.10;;;1.40;;
38318;SDS011;24121;53.536;10.224;2024-03-17T14:38:11;6.03;;;1.80;;
38318;SDS011;24121;53.536;10.224;2024-03-17T14:40:39;10.00;;;2.58;;
38318;SDS011;24121;53.536;10.224;2024-03-17T14:43:04;7.60;;;2.30;;
38318;SDS011;24121;53.536;10.224;2024-03-17T14:45:30;6.72;;;1.88;;
38318;SDS011;24121;53.536;10.224;2024-03-17T14:47:55;5.93;;;1.45;;
38318;SDS011;24121;53.536;10.224;2024-03-17T14:50:21;8.38;;;2.03;;
38318;SDS011;24121;53.536;10.224;2024-03-17T14:52:46;4.60;;;1.40;;
38318;SDS011;24121;53.536;10.224;2024-03-17T14:55:11;6.75;;;1.80;;
38318;SDS011;24121;53.536;10.224;2024-03-17T14:57:37;6.05;;;1.85;;
38318;SDS011;24121;53.536;10.224;2024-03-17T15:00:07;8.18;;;1.65;;
38318;SDS011;24121;53.536;10.224;2024-03-17T15:02:45;4.40;;;1.50;;
38318;SDS011;24121;53.536;10.224;2024-03-17T15:05:12;10.27;;;1.98;;
38318;SDS011;24121;53.536;10.224;2024-03-17T15:07:39;7.28;;;1.80;;
38318;SDS011;24121;53.536;10.224;2024-03-17T15:10:05;7.60;;;2.15;;
38318;SDS011;24121;53.536;10.224;2024-03-17T15:12:31;6.32;;;1.63;;
38318;SDS011;24121;53.536;10.224;2024-03-17T15:14:56;9.00;;;2.10;;
38318;SDS011;24121;53.536;10.224;2024-03-17T15:17:22;5.95;;;1.60;;
38318;SDS011;24121;53.536;10.224;2024-03-17T15:19:47;9.30;;;2.72;;
38318;SDS011;24121;53.536;10.224;2024-03-17T15:22:13;7.53;;;2.53;;
38318;SDS011;24121;53.536;10.224;2024-03-17T15:24:38;6.57;;;1.55;;
38318;SDS011;24121;53.536;10.224;2024-03-17T15:27:03;11.32;;;2.30;;
38318;SDS011;24121;53.536;10.224;2024-03-17T15:29:29;7.22;;;1.70;;
38318;SDS011;24121;53.536;10.224;2024-03-17T15:31:54;9.25;;;1.70;;
38318;SDS011;24121;53.536;10.224;2024-03-17T15:34:22;7.43;;;1.65;;
38318;SDS011;24121;53.536;10.224;2024-03-17T15:36:47;7.45;;;1.80;;
38318;SDS011;24121;53.536;10.224;2024-03-17T15:39:14;7.05;;;1.75;;
38318;SDS011;24121;53.536;10.224;2024-03-17T15:41:40;5.53;;;1.60;;
38318;SDS011;24121;53.536;10.224;2024-03-17T15:44:05;7.75;;;1.85;;
38318;SDS011;24121;53.536;10.224;2024-03-17T15:46:31;4.88;;;1.88;;
38318;SDS011;24121;53.536;10.224;2024-03-17T15:48:57;5.65;;;1.60;;
38318;SDS011;24121;53.536;10.224;2024-03-17T15:51:23;8.73;;;1.38;;
38318;SDS011;24121;53.536;10.224;2024-03-17T15:53:49;6.40;;;1.60;;
38318;SDS011;24121;53.536;10.224;2024-03-17T15:56:14;6.07;;;1.60;;
38318;SDS011;24121;53.536;10.224;2024-03-17T15:58:40;5.07;;;1.65;;
38318;SDS011;24121;53.536;10.224;2024-03-17T16:01:06;9.13;;;2.30;;
38318;SDS011;24121;53.536;10.224;2024-03-17T16:03:33;7.65;;;1.77;;
38318;SDS011;24121;53.536;10.224;2024-03-17T16:06:13;6.70;;;2.25;;
38318;SDS011;24121;53.536;10.224;2024-03-17T16:08:42;8.57;;;2.08;;
38318;SDS011;24121;53.536;10.224;2024-03-17T16:11:12;7.88;;;2.08;;
38318;SDS011;24121;53.536;10.224;2024-03-17T16:13:41;7.38;;;1.63;;
38318;SDS011;24121;53.536;10.224;2024-03-17T16:16:08;8.20;;;2.08;;
38318;SDS011;24121;53.536;10.224;2024-03-17T16:18:37;5.00;;;1.58;;
38318;SDS011;24121;53.536;10.224;2024-03-17T16:23:39;7.28;;;1.50;;
38318;SDS011;24121;53.536;10.224;2024-03-17T16:26:09;5.05;;;1.60;;
38318;SDS011;24121;53.536;10.224;2024-03-17T16:28:35;7.70;;;1.95;;
38318;SDS011;24121;53.536;10.224;2024-03-17T16:31:01;9.63;;;1.70;;
38318;SDS011;24121;53.536;10.224;2024-03-17T16:33:27;8.48;;;1.80;;
38318;SDS011;24121;53.536;10.224;2024-03-17T16:35:54;8.95;;;1.73;;
38318;SDS011;24121;53.536;10.224;2024-03-17T16:38:20;5.63;;;1.98;;
38318;SDS011;24121;53.536;10.224;2024-03-17T16:40:46;6.95;;;1.95;;
38318;SDS011;24121;53.536;10.224;2024-03-17T16:43:14;5.47;;;1.58;;
38318;SDS011;24121;53.536;10.224;2024-03-17T16:45:46;6.25;;;1.90;;
38318;SDS011;24121;53.536;10.224;2024-03-17T16:48:21;6.15;;;1.70;;
38318;SDS011;24121;53.536;10.224;2024-03-17T16:50:46;6.30;;;2.38;;
38318;SDS011;24121;53.536;10.224;2024-03-17T16:53:12;5.75;;;1.45;;
38318;SDS011;24121;53.536;10.224;2024-03-17T16:55:37;6.43;;;1.80;;
38318;SDS011;24121;53.536;10.224;2024-03-17T16:58:03;7.43;;;1.70;;
38318;SDS011;24121;53.536;10.224;2024-03-17T17:00:28;4.75;;;1.85;;
38318;SDS011;24121;53.536;10.224;2024-03-17T17:02:54;7.95;;;1.60;;
38318;SDS011;24121;53.536;10.224;2024-03-17T17:05:20;5.47;;;1.88;;
38318;SDS011;24121;53.536;10.224;2024-03-17T17:07:45;6.22;;;1.63;;
38318;SDS011;24121;53.536;10.224;2024-03-17T17:10:15;5.25;;;1.65;;
38318;SDS011;24121;53.536;10.224;2024-03-17T17:12:41;5.50;;;1.52;;
38318;SDS011;24121;53.536;10.224;2024-03-17T17:15:16;6.00;;;1.40;;
38318;SDS011;24121;53.536;10.224;2024-03-17T17:17:42;4.50;;;1.45;;
38318;SDS011;24121;53.536;10.224;2024-03-17T17:20:08;4.55;;;1.30;;
38318;SDS011;24121;53.536;10.224;2024-03-17T17:22:39;5.28;;;1.20;;
38318;SDS011;24121;53.536;10.224;2024-03-17T17:25:05;4.53;;;1.30;;
38318;SDS011;24121;53.536;10.224;2024-03-17T17:27:32;5.85;;;1.40;;
38318;SDS011;24121;53.536;10.224;2024-03-17T17:30:01;2.38;;;1.30;;
38318;SDS011;24121;53.536;10.224;2024-03-17T17:32:27;6.05;;;1.63;;
38318;SDS011;24121;53.536;10.224;2024-03-17T17:34:52;3.40;;;1.38;;
38318;SDS011;24121;53.536;10.224;2024-03-17T17:37:18;4.38;;;1.00;;
38318;SDS011;24121;53.536;10.224;2024-03-17T17:39:43;3.58;;;1.38;;
38318;SDS011;24121;53.536;10.224;2024-03-17T17:42:08;5.55;;;1.50;;
38318;SDS011;24121;53.536;10.224;2024-03-17T17:44:34;4.57;;;1.25;;
38318;SDS011;24121;53.536;10.224;2024-03-17T17:47:00;3.95;;;1.20;;
38318;SDS011;24121;53.536;10.224;2024-03-17T17:49:26;2.85;;;1.20;;
38318;SDS011;24121;53.536;10.224;2024-03-17T17:51:52;4.72;;;1.42;;
38318;SDS011;24121;53.536;10.224;2024-03-17T17:54:17;6.28;;;1.60;;
38318;SDS011;24121;53.536;10.224;2024-03-17T17:56:43;3.80;;;1.20;;
38318;SDS011;24121;53.536;10.224;2024-03-17T17:59:09;4.00;;;1.48;;
38318;SDS011;24121;53.536;10.224;2024-03-17T18:01:34;3.03;;;1.25;;
38318;SDS011;24121;53.536;10.224;2024-03-17T18:04:00;4.07;;;1.55;;
38318;SDS011;24121;53.536;10.224;2024-03-17T18:06:26;4.88;;;1.52;;
38318;SDS011;24121;53.536;10.224;2024-03-17T18:08:52;3.30;;;1.30;;
38318;SDS011;24121;53.536;10.224;2024-03-17T18:11:18;3.17;;;1.52;;
38318;SDS011;24121;53.536;10.224;2024-03-17T18:13:44;4.28;;;1.50;;
38318;SDS011;24121;53.536;10.224;2024-03-17T18:16:10;3.92;;;1.60;;
38318;SDS011;24121;53.536;10.224;2024-03-17T18:18:36;4.43;;;1.50;;
38318;SDS011;24121;53.536;10.224;2024-03-17T18:21:02;3.25;;;1.50;;
38318;SDS011;24121;53.536;10.224;2024-03-17T18:23:29;5.15;;;1.88;;
38318;SDS011;24121;53.536;10.224;2024-03-17T18:25:55;6.07;;;2.22;;
38318;SDS011;24121;53.536;10.224;2024-03-17T18:28:21;7.85;;;2.72;;
38318;SDS011;24121;53.536;10.224;2024-03-17T18:30:47;4.72;;;2.35;;
38318;SDS011;24121;53.536;10.224;2024-03-17T18:33:16;6.85;;;2.30;;
38318;SDS011;24121;53.536;10.224;2024-03-17T18:35:51;4.83;;;2.80;;
38318;SDS011;24121;53.536;10.224;2024-03-17T18:38:19;4.57;;;1.90;;
38318;SDS011;24121;53.536;10.224;2024-03-17T18:40:45;4.18;;;1.95;;
38318;SDS011;24121;53.536;10.224;2024-03-17T18:43:11;6.25;;;2.17;;
38318;SDS011;24121;53.536;10.224;2024-03-17T18:45:36;7.57;;;2.42;;
38318;SDS011;24121;53.536;10.224;2024-03-17T18:48:02;5.47;;;1.80;;
38318;SDS011;24121;53.536;10.224;2024-03-17T18:50:27;2.75;;;1.83;;
38318;SDS011;24121;53.536;10.224;2024-03-17T18:52:54;4.05;;;1.67;;
38318;SDS011;24121;53.536;10.224;2024-03-17T18:55:20;4.45;;;1.92;;
38318;SDS011;24121;53.536;10.224;2024-03-17T18:57:46;4.45;;;1.95;;
38318;SDS011;24121;53.536;10.224;2024-03-17T19:00:13;3.92;;;2.22;;
38318;SDS011;24121;53.536;10.224;2024-03-17T19:02:51;4.03;;;2.00;;
38318;SDS011;24121;53.536;10.224;2024-03-17T19:05:17;3.80;;;1.95;;
38318;SDS011;24121;53.536;10.224;2024-03-17T19:07:46;4.45;;;1.63;;
38318;SDS011;24121;53.536;10.224;2024-03-17T19:10:14;3.20;;;1.77;;
38318;SDS011;24121;53.536;10.224;2024-03-17T19:12:46;3.28;;;2.10;;
38318;SDS011;24121;53.536;10.224;2024-03-17T19:15:12;4.55;;;1.88;;
38318;SDS011;24121;53.536;10.224;2024-03-17T19:17:38;4.95;;;1.80;;
38318;SDS011;24121;53.536;10.224;2024-03-17T19:20:03;4.20;;;1.85;;
38318;SDS011;24121;53.536;10.224;2024-03-17T19:22:37;3.75;;;1.90;;
38318;SDS011;24121;53.536;10.224;2024-03-17T19:25:03;3.67;;;2.03;;
38318;SDS011;24121;53.536;10.224;2024-03-17T19:27:32;3.72;;;1.80;;
38318;SDS011;24121;53.536;10.224;2024-03-17T19:29:57;5.90;;;2.58;;
38318;SDS011;24121;53.536;10.224;2024-03-17T19:32:23;2.40;;;1.83;;
38318;SDS011;24121;53.536;10.224;2024-03-17T19:34:48;4.65;;;2.20;;
38318;SDS011;24121;53.536;10.224;2024-03-17T19:37:14;4.75;;;2.13;;
38318;SDS011;24121;53.536;10.224;2024-03-17T19:39:39;4.95;;;2.38;;
38318;SDS011;24121;53.536;10.224;2024-03-17T19:42:04;5.32;;;2.13;;
38318;SDS011;24121;53.536;10.224;2024-03-17T19:44:30;4.32;;;2.28;;
38318;SDS011;24121;53.536;10.224;2024-03-17T19:46:56;3.35;;;2.00;;
38318;SDS011;24121;53.536;10.224;2024-03-17T19:49:21;4.38;;;2.53;;
38318;SDS011;24121;53.536;10.224;2024-03-17T19:51:47;3.00;;;2.10;;
38318;SDS011;24121;53.536;10.224;2024-03-17T19:54:13;3.70;;;2.22;;
38318;SDS011;24121;53.536;10.224;2024-03-17T19:56:38;5.25;;;2.20;;
38318;SDS011;24121;53.536;10.224;2024-03-17T19:59:05;2.25;;;1.95;;
38318;SDS011;24121;53.536;10.224;2024-03-17T20:01:30;3.58;;;1.95;;
38318;SDS011;24121;53.536;10.224;2024-03-17T20:03:55;3.25;;;2.05;;
38318;SDS011;24121;53.536;10.224;2024-03-17T20:06:24;4.25;;;2.50;;
38318;SDS011;24121;53.536;10.224;2024-03-17T20:11:17;2.53;;;2.10;;
38318;SDS011;24121;53.536;10.224;2024-03-17T20:13:43;3.03;;;1.95;;
38318;SDS011;24121;53.536;10.224;2024-03-17T20:16:14;2.40;;;2.17;;
38318;SDS011;24121;53.536;10.224;2024-03-17T20:18:43;5.80;;;2.08;;
38318;SDS011;24121;53.536;10.224;2024-03-17T20:21:09;4.57;;;1.90;;
38318;SDS011;24121;53.536;10.224;2024-03-17T20:23:35;3.40;;;2.03;;
38318;SDS011;24121;53.536;10.224;2024-03-17T20:26:03;3.30;;;1.83;;
38318;SDS011;24121;53.536;10.224;2024-03-17T20:28:29;3.38;;;1.75;;
38318;SDS011;24121;53.536;10.224;2024-03-17T20:30:54;2.15;;;1.77;;
38318;SDS011;24121;53.536;10.224;2024-03-17T20:33:20;3.13;;;1.90;;
38318;SDS011;24121;53.536;10.224;2024-03-17T20:35:45;2.90;;;1.70;;
38318;SDS011;24121;53.536;10.224;2024-03-17T20:38:10;4.20;;;1.88;;
38318;SDS011;24121;53.536;10.224;2024-03-17T20:40:36;3.33;;;2.05;;
38318;SDS011;24121;53.536;10.224;2024-03-17T20:43:01;1.90;;;1.67;;
38318;SDS011;24121;53.536;10.224;2024-03-17T20:45:26;4.05;;;1.80;;
38318;SDS011;24121;53.536;10.224;2024-03-17T20:47:53;3.25;;;1.88;;
38318;SDS011;24121;53.536;10.224;2024-03-17T20:50:20;2.92;;;1.95;;
38318;SDS011;24121;53.536;10.224;2024-03-17T20:52:47;4.47;;;1.90;;
38318;SDS011;24121;53.536;10.224;2024-03-17T20:55:12;2.47;;;1.73;;
38318;SDS011;24121;53.536;10.224;2024-03-17T20:57:40;3.45;;;1.90;;
38318;SDS011;24121;53.536;10.224;2024-03-17T21:00:06;2.85;;;2.00;;
38318;SDS011;24121;53.536;10.224;2024-03-17T21:02:42;3.45;;;2.03;;
38318;SDS011;24121;53.536;10.224;2024-03-17T21:05:08;3.10;;;1.63;;
38318;SDS011;24121;53.536;10.224;2024-03-17T21:07:33;2.28;;;1.80;;
38318;SDS011;24121;53.536;10.224;2024-03-17T21:09:59;3.00;;;2.00;;
38318;SDS011;24121;53.536;10.224;2024-03-17T21:12:25;6.07;;;1.83;;
38318;SDS011;24121;53.536;10.224;2024-03-17T21:14:51;4.53;;;1.70;;
38318;SDS011;24121;53.536;10.224;2024-03-17T21:17:17;3.50;;;1.90;;
38318;SDS011;24121;53.536;10.224;2024-03-17T21:19:42;2.45;;;1.90;;
38318;SDS011;24121;53.536;10.224;2024-03-17T21:22:08;3.28;;;1.80;;
38318;SDS011;24121;53.536;10.224;2024-03-17T21:24:33;5.80;;;2.20;;
38318;SDS011;24121;53.536;10.224;2024-03-17T21:26:59;3.20;;;1.75;;
38318;SDS011;24121;53.536;10.224;2024-03-17T21:29:24;2.15;;;1.60;;
38318;SDS011;24121;53.536;10.224;2024-03-17T21:31:50;3.38;;;1.75;;
38318;SDS011;24121;53.536;10.224;2024-03-17T21:34:15;2.17;;;1.83;;
38318;SDS011;24121;53.536;10.224;2024-03-17T21:36:41;4.25;;;2.17;;
38318;SDS011;24121;53.536;10.224;2024-03-17T21:39:07;2.97;;;1.80;;
38318;SDS011;24121;53.536;10.224;2024-03-17T21:41:32;5.00;;;1.92;;
38318;SDS011;24121;53.536;10.224;2024-03-17T21:43:58;2.08;;;1.70;;
38318;SDS011;24121;53.536;10.224;2024-03-17T21:46:24;3.58;;;1.90;;
38318;SDS011;24121;53.536;10.224;2024-03-17T21:48:52;3.05;;;2.30;;
38318;SDS011;24121;53.536;10.224;2024-03-17T21:51:17;3.85;;;2.13;;
38318;SDS011;24121;53.536;10.224;2024-03-17T21:53:42;4.00;;;1.90;;
38318;SDS011;24121;53.536;10.224;2024-03-17T21:56:08;2.25;;;2.03;;
38318;SDS011;24121;53.536;10.224;2024-03-17T21:58:33;3.75;;;2.05;;
38318;SDS011;24121;53.536;10.224;2024-03-17T22:01:02;2.10;;;1.90;;
38318;SDS011;24121;53.536;10.224;2024-03-17T22:03:33;3.03;;;2.28;;
38318;SDS011;24121;53.536;10.224;2024-03-17T22:05:59;4.50;;;2.35;;
38318;SDS011;24121;53.536;10.224;2024-03-17T22:08:26;2.53;;;1.90;;
38318;SDS011;24121;53.536;10.224;2024-03-17T22:10:55;2.35;;;1.90;;
38318;SDS011;24121;53.536;10.224;2024-03-17T22:13:24;3.43;;;1.93;;
38318;SDS011;24121;53.536;10.224;2024-03-17T22:15:54;4.18;;;2.63;;
38318;SDS011;24121;53.536;10.224;2024-03-17T22:18:23;4.07;;;2.42;;
38318;SDS011;24121;53.536;10.224;2024-03-17T22:20:56;2.45;;;2.03;;
38318;SDS011;24121;53.536;10.224;2024-03-17T22:23:24;2.55;;;2.00;;
38318;SDS011;24121;53.536;10.224;2024-03-17T22:25:54;2.70;;;2.33;;
38318;SDS011;24121;53.536;10.224;2024-03-17T22:28:20;3.53;;;2.30;;
38318;SDS011;24121;53.536;10.224;2024-03-17T22:30:50;3.03;;;2.35;;
38318;SDS011;24121;53.536;10.224;2024-03-17T22:35:41;3.85;;;2.30;;
38318;SDS011;24121;53.536;10.224;2024-03-17T22:38:06;2.60;;;2.00;;
38318;SDS011;24121;53.536;10.224;2024-03-17T22:40:32;2.78;;;2.30;;
38318;SDS011;24121;53.536;10.224;2024-03-17T22:42:58;6.45;;;3.15;;
38318;SDS011;24121;53.536;10.224;2024-03-17T22:45:23;3.50;;;2.58;;
38318;SDS011;24121;53.536;10.224;2024-03-17T22:47:48;5.28;;;2.22;;
38318;SDS011;24121;53.536;10.224;2024-03-17T22:50:14;3.22;;;2.05;;
38318;SDS011;24121;53.536;10.224;2024-03-17T22:52:39;2.88;;;2.40;;
38318;SDS011;24121;53.536;10.224;2024-03-17T22:55:04;4.28;;;2.67;;
38318;SDS011;24121;53.536;10.224;2024-03-17T22:57:30;4.03;;;2.30;;
38318;SDS011;24121;53.536;10.224;2024-03-17T22:59:55;3.42;;;2.42;;
38318;SDS011;24121;53.536;10.224;2024-03-17T23:02:21;3.85;;;2.55;;
38318;SDS011;24121;53.536;10.224;2024-03-17T23:04:46;2.88;;;2.42;;
38318;SDS011;24121;53.536;10.224;2024-03-17T23:07:11;3.97;;;2.80;;
